createdAt,value
2018-03-02T00:01:15.477Z,-9.13
2018-03-02T00:03:43.011Z,-9.10
2018-03-02T00:06:10.528Z,-9.32
2018-03-02T00:08:38.045Z,-9.27
2018-03-02T00:11:05.583Z,-9.26
2018-03-02T00:13:33.109Z,-9.26
2018-03-02T00:16:00.629Z,-9.23
2018-03-02T00:18:28.230Z,-9.24
2018-03-02T00:20:55.754Z,-9.24
2018-03-02T00:23:23.293Z,-9.37
2018-03-02T00:25:50.829Z,-9.40
2018-03-02T00:28:18.366Z,-9.38
2018-03-02T00:30:45.889Z,-9.46
2018-03-02T00:33:13.424Z,-9.39
2018-03-02T00:35:40.952Z,-9.37
2018-03-02T00:38:08.469Z,-9.37
2018-03-02T00:40:35.998Z,-9.42
2018-03-02T00:43:03.517Z,-9.29
2018-03-02T00:45:31.070Z,-9.43
2018-03-02T00:47:58.585Z,-9.37
2018-03-02T00:50:26.114Z,-9.49
2018-03-02T00:52:53.634Z,-9.60
2018-03-02T00:55:21.157Z,-9.63
2018-03-02T00:57:48.678Z,-9.61
2018-03-02T01:00:16.212Z,-9.39
2018-03-02T01:02:44.104Z,-9.56
2018-03-02T01:05:11.629Z,-9.59
2018-03-02T01:07:39.152Z,-9.63
2018-03-02T01:10:06.672Z,-9.57
2018-03-02T01:12:34.194Z,-9.52
2018-03-02T01:15:01.713Z,-9.72
2018-03-02T01:17:29.236Z,-9.56
2018-03-02T01:19:56.754Z,-9.54
2018-03-02T01:22:24.277Z,-9.76
2018-03-02T01:24:51.812Z,-9.74
2018-03-02T01:27:19.325Z,-9.61
2018-03-02T01:29:46.840Z,-9.68
2018-03-02T01:32:14.356Z,-9.75
2018-03-02T01:34:41.883Z,-9.64
2018-03-02T01:37:09.402Z,-9.73
2018-03-02T01:39:36.925Z,-9.80
2018-03-02T01:42:04.445Z,-9.69
2018-03-02T01:44:31.965Z,-9.73
2018-03-02T01:46:59.484Z,-9.83
2018-03-02T01:49:26.999Z,-9.68
2018-03-02T01:51:54.534Z,-9.91
2018-03-02T01:54:22.060Z,-9.76
2018-03-02T01:56:49.588Z,-9.71
2018-03-02T01:59:17.110Z,-9.99
2018-03-02T02:01:44.633Z,-9.91
2018-03-02T02:04:12.175Z,-9.96
2018-03-02T02:06:39.698Z,-9.87
2018-03-02T02:09:07.221Z,-9.99
2018-03-02T02:11:34.742Z,-9.94
2018-03-02T02:14:02.278Z,-10.11
2018-03-02T02:16:29.797Z,-10.00
2018-03-02T02:18:57.327Z,-10.05
2018-03-02T02:21:24.858Z,-10.02
2018-03-02T02:23:52.373Z,-9.81
2018-03-02T02:26:19.893Z,-9.89
2018-03-02T02:28:47.420Z,-9.94
2018-03-02T02:31:14.956Z,-9.99
2018-03-02T02:33:42.476Z,-10.06
2018-03-02T02:36:10.011Z,-10.07
2018-03-02T02:38:37.529Z,-10.12
2018-03-02T02:41:05.047Z,-9.96
2018-03-02T02:43:32.568Z,-10.15
2018-03-02T02:46:00.095Z,-10.15
2018-03-02T02:48:27.621Z,-10.06
2018-03-02T02:50:55.148Z,-10.18
2018-03-02T02:53:22.665Z,-9.98
2018-03-02T02:55:50.183Z,-9.94
2018-03-02T02:58:17.706Z,-10.04
2018-03-02T03:00:45.225Z,-10.16
2018-03-02T03:03:12.777Z,-10.23
2018-03-02T03:05:40.316Z,-10.14
2018-03-02T03:08:07.868Z,-10.17
2018-03-02T03:10:35.401Z,-10.16
2018-03-02T03:13:02.935Z,-10.29
2018-03-02T03:15:30.467Z,-10.43
2018-03-02T03:17:58.006Z,-10.18
2018-03-02T03:20:25.527Z,-10.14
2018-03-02T03:22:53.052Z,-10.20
2018-03-02T03:25:20.587Z,-10.30
2018-03-02T03:27:48.115Z,-10.35
2018-03-02T03:30:15.641Z,-10.33
2018-03-02T03:32:43.160Z,-10.26
2018-03-02T03:35:10.681Z,-10.32
2018-03-02T03:37:38.211Z,-10.27
2018-03-02T03:40:05.753Z,-10.40
2018-03-02T03:42:33.279Z,-10.48
2018-03-02T03:45:00.800Z,-10.30
2018-03-02T03:47:28.324Z,-10.48
2018-03-02T03:49:55.851Z,-10.28
2018-03-02T03:52:23.385Z,-10.38
2018-03-02T03:54:50.910Z,-10.35
2018-03-02T03:57:18.448Z,-10.22
2018-03-02T03:59:45.975Z,-10.37
2018-03-02T04:02:13.501Z,-10.52
2018-03-02T04:04:41.029Z,-10.47
2018-03-02T04:07:08.563Z,-10.47
2018-03-02T04:09:36.100Z,-10.52
2018-03-02T04:12:03.659Z,-10.47
2018-03-02T04:14:31.188Z,-10.46
2018-03-02T04:16:58.704Z,-10.36
2018-03-02T04:19:26.225Z,-10.39
2018-03-02T04:21:53.751Z,-10.65
2018-03-02T04:24:21.275Z,-10.54
2018-03-02T04:26:48.797Z,-10.56
2018-03-02T04:29:16.332Z,-10.46
2018-03-02T04:31:43.860Z,-10.47
2018-03-02T04:34:11.380Z,-10.38
2018-03-02T04:36:38.904Z,-10.57
2018-03-02T04:39:06.436Z,-10.62
2018-03-02T04:41:33.963Z,-10.58
2018-03-02T04:44:01.490Z,-10.63
2018-03-02T04:46:29.013Z,-10.59
2018-03-02T04:48:56.537Z,-10.62
2018-03-02T04:51:24.071Z,-10.63
2018-03-02T04:53:51.627Z,-10.63
2018-03-02T04:56:19.145Z,-10.54
2018-03-02T04:58:46.685Z,-10.59
2018-03-02T05:01:14.211Z,-10.58
2018-03-02T05:03:41.787Z,-10.71
2018-03-02T05:06:09.289Z,-10.63
2018-03-02T05:08:36.813Z,-10.53
2018-03-02T05:11:04.345Z,-10.63
2018-03-02T05:13:31.866Z,-10.58
2018-03-02T05:15:59.392Z,-10.65
2018-03-02T05:18:26.921Z,-10.63
2018-03-02T05:20:54.459Z,-10.51
2018-03-02T05:23:21.987Z,-10.51
2018-03-02T05:25:49.520Z,-10.42
2018-03-02T05:28:17.056Z,-10.49
2018-03-02T05:30:44.597Z,-10.63
2018-03-02T05:33:12.117Z,-10.54
2018-03-02T05:35:39.638Z,-10.60
2018-03-02T05:38:07.170Z,-10.51
2018-03-02T05:40:34.692Z,-10.52
2018-03-02T05:43:02.219Z,-10.48
2018-03-02T05:45:29.738Z,-10.54
2018-03-02T05:47:57.257Z,-10.59
2018-03-02T05:50:24.793Z,-10.58
2018-03-02T05:52:52.320Z,-10.59
2018-03-02T05:55:19.840Z,-10.66
2018-03-02T05:57:47.401Z,-10.53
2018-03-02T06:00:14.925Z,-10.72
2018-03-02T06:02:42.459Z,-10.69
2018-03-02T06:05:09.980Z,-10.76
2018-03-02T06:07:37.504Z,-10.61
2018-03-02T06:10:05.034Z,-10.52
2018-03-02T06:12:32.571Z,-10.54
2018-03-02T06:15:00.094Z,-10.65
2018-03-02T06:17:27.627Z,-10.32
2018-03-02T06:19:55.171Z,-10.58
2018-03-02T06:22:22.698Z,-10.42
2018-03-02T06:24:50.217Z,-10.59
2018-03-02T06:27:17.737Z,-10.29
2018-03-02T06:29:45.273Z,-9.97
2018-03-02T06:32:12.803Z,-9.91
2018-03-02T06:34:40.329Z,-10.23
2018-03-02T06:37:07.858Z,-10.42
2018-03-02T06:39:35.397Z,-10.10
2018-03-02T06:42:02.946Z,-10.07
2018-03-02T06:44:30.470Z,-10.17
2018-03-02T06:46:57.997Z,-10.01
2018-03-02T06:49:25.523Z,-10.04
2018-03-02T06:51:53.070Z,-9.62
2018-03-02T06:54:20.603Z,-9.85
2018-03-02T06:56:48.132Z,-9.80
2018-03-02T06:59:15.654Z,-9.62
2018-03-02T07:01:43.208Z,-9.52
2018-03-02T07:04:10.743Z,-9.42
2018-03-02T07:06:38.264Z,-9.57
2018-03-02T07:09:05.789Z,-9.61
2018-03-02T07:11:33.304Z,-9.76
2018-03-02T07:14:00.830Z,-9.47
2018-03-02T07:16:28.357Z,-9.82
2018-03-02T07:18:56.688Z,-9.32
2018-03-02T07:21:24.210Z,-9.47
2018-03-02T07:23:51.737Z,-9.13
2018-03-02T07:26:19.274Z,-8.86
2018-03-02T07:28:46.792Z,-9.04
2018-03-02T07:31:14.336Z,-8.99
2018-03-02T07:33:41.852Z,-8.64
2018-03-02T07:36:09.370Z,-8.65
2018-03-02T07:38:36.907Z,-8.80
2018-03-02T07:41:04.434Z,-8.18
2018-03-02T07:43:31.966Z,-7.98
2018-03-02T07:46:00.070Z,-7.65
2018-03-02T07:48:27.591Z,-7.72
2018-03-02T07:50:55.127Z,-6.28
2018-03-02T07:53:22.651Z,-6.21
2018-03-02T07:55:50.172Z,-5.48
2018-03-02T07:58:17.696Z,-5.57
2018-03-02T08:00:45.216Z,-5.24
2018-03-02T08:03:12.740Z,-5.16
2018-03-02T08:05:40.262Z,-5.02
2018-03-02T08:08:07.783Z,-5.59
2018-03-02T08:10:35.366Z,-3.16
2018-03-02T08:13:02.889Z,-2.66
2018-03-02T08:15:30.404Z,-4.19
2018-03-02T08:17:57.916Z,-3.30
2018-03-02T08:20:25.461Z,-5.26
2018-03-02T08:22:53.000Z,-2.69
2018-03-02T08:25:20.571Z,-3.67
2018-03-02T08:27:48.061Z,-3.76
2018-03-02T08:30:15.576Z,-1.79
2018-03-02T08:32:43.125Z,-1.60
2018-03-02T08:35:10.663Z,-1.01
2018-03-02T08:37:38.179Z,-0.80
2018-03-02T08:40:05.709Z,-1.09
2018-03-02T08:42:33.229Z,1.07
2018-03-02T08:45:00.763Z,-1.41
2018-03-02T08:47:28.279Z,-0.15
2018-03-02T08:49:55.817Z,-1.48
2018-03-02T08:52:23.345Z,1.46
2018-03-02T08:54:50.866Z,-1.88
2018-03-02T08:57:18.380Z,-1.28
2018-03-02T08:59:45.901Z,-0.63
2018-03-02T09:02:13.415Z,0.77
2018-03-02T09:04:40.957Z,2.27
2018-03-02T09:07:08.480Z,-1.25
2018-03-02T09:09:36.018Z,-1.11
2018-03-02T09:12:03.552Z,0.33
2018-03-02T09:14:31.086Z,-0.68
2018-03-02T09:16:58.626Z,-0.46
2018-03-02T09:19:26.143Z,-0.57
2018-03-02T09:21:53.661Z,-0.58
2018-03-02T09:24:21.177Z,0.01
2018-03-02T09:26:48.690Z,1.20
2018-03-02T09:29:16.200Z,2.27
2018-03-02T09:31:43.734Z,-0.65
2018-03-02T09:34:11.259Z,1.02
2018-03-02T09:36:38.775Z,4.33
2018-03-02T09:39:06.713Z,-0.16
2018-03-02T09:41:34.856Z,0.71
2018-03-02T09:44:02.394Z,5.14
2018-03-02T09:46:30.606Z,3.25
2018-03-02T09:48:58.185Z,2.65
2018-03-02T09:51:25.713Z,2.24
2018-03-02T09:53:53.243Z,3.27
2018-03-02T09:56:20.791Z,0.88
2018-03-02T09:58:48.318Z,4.97
2018-03-02T10:01:16.181Z,4.45
2018-03-02T10:03:44.639Z,4.49
2018-03-02T10:06:12.153Z,6.20
2018-03-02T10:08:39.669Z,2.73
2018-03-02T10:11:07.187Z,0.57
2018-03-02T10:13:34.711Z,4.29
2018-03-02T10:16:02.240Z,1.81
2018-03-02T10:18:29.761Z,-2.89
2018-03-02T10:20:57.283Z,-1.44
2018-03-02T10:23:24.832Z,0.26
2018-03-02T10:25:52.352Z,-1.14
2018-03-02T10:28:19.894Z,-3.31
2018-03-02T10:30:47.418Z,-3.33
2018-03-02T10:33:14.961Z,-1.53
2018-03-02T10:35:42.489Z,-2.57
2018-03-02T10:38:10.024Z,-2.99
2018-03-02T10:40:37.554Z,-1.94
2018-03-02T10:43:05.079Z,-2.22
2018-03-02T10:45:32.596Z,-2.59
2018-03-02T10:48:00.119Z,-2.04
2018-03-02T10:50:28.270Z,-3.26
2018-03-02T10:52:55.794Z,-3.65
2018-03-02T10:55:23.328Z,-4.10
2018-03-02T10:57:50.853Z,-3.85
2018-03-02T11:00:23.981Z,-4.20
2018-03-02T11:02:58.397Z,-3.73
2018-03-02T11:05:31.636Z,-3.32
2018-03-02T11:07:59.230Z,-3.62
2018-03-02T11:10:27.687Z,-2.84
2018-03-02T11:12:55.247Z,-2.69
2018-03-02T11:15:22.786Z,-3.50
2018-03-02T11:17:50.332Z,-2.78
2018-03-02T11:20:17.875Z,-3.90
2018-03-02T11:22:45.400Z,-4.50
2018-03-02T11:25:12.948Z,-3.54
2018-03-02T11:27:40.474Z,-3.31
2018-03-02T11:30:08.008Z,-2.84
2018-03-02T11:32:35.526Z,-2.86
2018-03-02T11:35:03.053Z,-2.82
2018-03-02T11:37:30.576Z,-3.81
2018-03-02T11:39:58.114Z,-3.86
2018-03-02T11:42:25.664Z,-4.04
2018-03-02T11:44:53.190Z,-3.75
2018-03-02T11:47:20.712Z,-2.90
2018-03-02T11:49:48.233Z,-3.01
2018-03-02T11:52:15.754Z,-2.93
2018-03-02T11:54:43.270Z,-2.79
2018-03-02T11:57:10.801Z,-3.61
2018-03-02T11:59:38.330Z,-2.63
2018-03-02T12:02:05.845Z,-2.64
2018-03-02T12:04:33.376Z,-3.12
2018-03-02T12:07:00.889Z,-2.50
2018-03-02T12:09:28.410Z,-2.40
2018-03-02T12:11:55.933Z,-2.84
2018-03-02T12:14:23.459Z,-3.30
2018-03-02T12:16:51.026Z,-2.95
2018-03-02T12:19:19.349Z,-3.11
2018-03-02T12:21:47.759Z,-2.62
2018-03-02T12:24:15.291Z,-3.51
2018-03-02T12:26:42.825Z,-2.96
2018-03-02T12:29:10.347Z,-2.94
2018-03-02T12:31:37.864Z,-3.43
2018-03-02T12:34:05.383Z,-2.96
2018-03-02T12:36:32.979Z,-3.52
2018-03-02T12:39:00.479Z,-3.26
2018-03-02T12:41:28.951Z,-2.94
2018-03-02T12:43:56.471Z,-3.37
2018-03-02T12:46:24.005Z,-3.14
2018-03-02T12:48:51.528Z,-3.66
2018-03-02T12:51:19.156Z,-3.59
2018-03-02T12:53:46.693Z,-2.88
2018-03-02T12:56:14.221Z,-2.76
2018-03-02T12:58:41.745Z,-2.96
2018-03-02T13:01:09.262Z,-2.53
2018-03-02T13:03:37.466Z,-2.89
2018-03-02T13:06:04.988Z,-3.10
2018-03-02T13:08:32.549Z,-3.01
2018-03-02T13:11:00.064Z,-3.29
2018-03-02T13:13:27.933Z,-2.83
2018-03-02T13:15:55.468Z,-3.01
2018-03-02T13:18:47.816Z,-2.55
2018-03-02T13:21:15.335Z,-2.72
2018-03-02T13:23:44.388Z,-2.52
2018-03-02T13:26:23.761Z,-2.80
2018-03-02T13:28:52.232Z,-2.70
2018-03-02T13:31:20.208Z,-2.81
2018-03-02T13:33:59.573Z,-2.70
2018-03-02T13:36:27.128Z,-2.70
2018-03-02T13:38:54.722Z,-2.89
2018-03-02T13:41:34.021Z,-2.88
2018-03-02T13:44:01.653Z,-2.69
2018-03-02T13:46:30.160Z,-2.76
2018-03-02T13:49:10.232Z,-2.53
2018-03-02T13:51:37.768Z,-2.75
2018-03-02T13:54:06.021Z,-2.62
2018-03-02T13:56:45.349Z,-2.62
2018-03-02T13:59:12.900Z,-2.90
2018-03-02T14:01:40.430Z,-2.94
2018-03-02T14:04:19.747Z,-2.94
2018-03-02T14:06:47.276Z,-3.00
2018-03-02T14:09:14.798Z,-3.00
2018-03-02T14:11:42.332Z,-2.73
2018-03-02T14:14:09.861Z,-2.80
2018-03-02T14:16:37.379Z,-2.82
2018-03-02T14:19:04.914Z,-2.88
2018-03-02T14:21:32.662Z,-3.06
2018-03-02T14:24:00.527Z,-2.86
2018-03-02T14:26:28.909Z,-2.84
2018-03-02T14:28:56.439Z,-2.81
2018-03-02T14:31:23.964Z,-2.85
2018-03-02T14:33:51.668Z,-2.66
2018-03-02T14:36:19.189Z,-2.62
2018-03-02T14:38:46.716Z,-2.61
2018-03-02T14:41:15.134Z,-2.98
2018-03-02T14:43:42.670Z,-2.82
2018-03-02T14:46:10.203Z,-2.77
2018-03-02T14:48:37.726Z,-3.04
2018-03-02T14:51:05.266Z,-3.17
2018-03-02T14:53:32.810Z,-3.05
2018-03-02T14:56:00.359Z,-2.91
2018-03-02T14:58:27.885Z,-2.83
2018-03-02T15:00:55.413Z,-2.61
2018-03-02T15:03:22.937Z,-2.79
2018-03-02T15:05:50.454Z,-2.88
2018-03-02T15:08:17.975Z,-2.92
2018-03-02T15:10:45.526Z,-2.92
2018-03-02T15:13:13.060Z,-2.82
2018-03-02T15:15:40.586Z,-3.00
2018-03-02T15:18:08.124Z,-2.96
2018-03-02T15:20:35.684Z,-2.98
2018-03-02T15:23:03.233Z,-2.91
2018-03-02T15:25:30.818Z,-3.01
2018-03-02T15:27:58.568Z,-2.85
2018-03-02T15:30:26.125Z,-3.14
2018-03-02T15:32:54.242Z,-3.00
2018-03-02T15:35:21.769Z,-2.83
2018-03-02T15:37:49.311Z,-3.23
2018-03-02T15:40:16.846Z,-3.16
2018-03-02T15:42:44.393Z,-3.10
2018-03-02T15:45:11.918Z,-3.19
2018-03-02T15:47:39.450Z,-3.15
2018-03-02T15:50:06.974Z,-3.20
2018-03-02T15:52:34.499Z,-3.10
2018-03-02T15:55:02.021Z,-3.31
2018-03-02T15:57:30.347Z,-3.44
2018-03-02T15:59:57.874Z,-3.33
2018-03-02T16:02:25.416Z,-3.26
2018-03-02T16:04:52.938Z,-3.40
2018-03-02T16:07:20.461Z,-3.34
2018-03-02T16:09:48.002Z,-3.38
2018-03-02T16:12:15.524Z,-3.38
2018-03-02T16:14:43.064Z,-3.38
2018-03-02T16:17:10.833Z,-3.50
2018-03-02T16:19:38.368Z,-3.41
2018-03-02T16:22:05.947Z,-3.33
2018-03-02T16:24:33.468Z,-3.56
2018-03-02T16:27:00.987Z,-3.53
2018-03-02T16:29:28.514Z,-3.52
2018-03-02T16:31:56.041Z,-3.55
2018-03-02T16:34:23.567Z,-3.62
2018-03-02T16:36:51.088Z,-3.56
2018-03-02T16:39:18.614Z,-3.51
2018-03-02T16:41:46.136Z,-3.54
2018-03-02T16:44:13.665Z,-3.47
2018-03-02T16:46:41.186Z,-3.59
2018-03-02T16:49:08.726Z,-3.64
2018-03-02T16:51:36.245Z,-3.64
2018-03-02T16:54:05.780Z,-3.81
2018-03-02T16:56:33.324Z,-3.67
2018-03-02T16:59:00.845Z,-3.68
2018-03-02T17:01:28.378Z,-3.77
2018-03-02T17:03:55.912Z,-3.86
2018-03-02T17:06:23.438Z,-3.82
2018-03-02T17:08:50.979Z,-3.84
2018-03-02T17:11:18.500Z,-3.85
2018-03-02T17:13:46.027Z,-3.89
2018-03-02T17:16:13.560Z,-3.90
2018-03-02T17:18:41.092Z,-3.93
2018-03-02T17:21:08.636Z,-3.91
2018-03-02T17:23:37.141Z,-3.89
2018-03-02T17:26:05.391Z,-3.97
2018-03-02T17:28:32.990Z,-3.99
2018-03-02T17:31:00.485Z,-3.99
2018-03-02T17:33:28.015Z,-3.92
2018-03-02T17:35:55.541Z,-3.98
2018-03-02T17:38:23.088Z,-4.00
2018-03-02T17:40:50.628Z,-3.97
2018-03-02T17:43:18.208Z,-4.10
2018-03-02T17:45:45.738Z,-4.00
2018-03-02T17:48:13.271Z,-4.01
2018-03-02T17:50:40.828Z,-4.01
2018-03-02T17:53:08.361Z,-4.04
2018-03-02T17:55:35.880Z,-4.16
2018-03-02T17:58:03.403Z,-4.14
2018-03-02T18:00:30.931Z,-4.20
2018-03-02T18:02:58.441Z,-4.16
2018-03-02T18:05:25.977Z,-4.20
2018-03-02T18:07:53.508Z,-4.24
2018-03-02T18:10:21.071Z,-4.22
2018-03-02T18:12:48.603Z,-4.27
2018-03-02T18:15:16.123Z,-4.30
2018-03-02T18:17:44.637Z,-4.30
2018-03-02T18:20:12.162Z,-4.29
2018-03-02T18:22:39.683Z,-4.36
2018-03-02T18:25:07.201Z,-4.36
2018-03-02T18:27:34.734Z,-4.41
2018-03-02T18:30:02.271Z,-4.47
2018-03-02T18:32:29.790Z,-4.50
2018-03-02T18:34:57.309Z,-4.54
2018-03-02T18:37:24.825Z,-4.44
2018-03-02T18:39:52.336Z,-4.53
2018-03-02T18:42:19.859Z,-4.53
2018-03-02T18:44:47.373Z,-4.52
2018-03-02T18:47:14.897Z,-4.45
2018-03-02T18:49:42.417Z,-4.66
2018-03-02T18:52:09.947Z,-4.54
2018-03-02T18:54:37.465Z,-4.66
2018-03-02T18:57:05.929Z,-4.67
2018-03-02T18:59:33.456Z,-4.63
2018-03-02T19:02:01.106Z,-4.71
2018-03-02T19:04:28.638Z,-4.78
2018-03-02T19:06:57.213Z,-4.70
2018-03-02T19:09:24.740Z,-4.88
2018-03-02T19:11:52.307Z,-4.85
2018-03-02T19:14:19.833Z,-4.79
2018-03-02T19:16:47.365Z,-4.97
2018-03-02T19:19:14.884Z,-4.90
2018-03-02T20:25:34.434Z,-5.51
2018-03-02T20:28:01.966Z,-5.68
2018-03-02T20:30:30.988Z,-5.76
2018-03-02T20:32:58.509Z,-5.70
2018-03-02T20:35:26.029Z,-5.83
2018-03-02T20:37:53.553Z,-5.84
2018-03-02T20:40:21.078Z,-5.88
2018-03-02T20:42:49.480Z,-5.93
2018-03-02T20:45:17.005Z,-5.86
2018-03-02T20:47:44.530Z,-5.83
2018-03-02T20:50:12.851Z,-5.98
2018-03-02T20:52:40.376Z,-5.77
2018-03-02T20:55:07.894Z,-5.93
2018-03-02T20:57:35.413Z,-5.80
2018-03-02T21:00:02.955Z,-6.10
2018-03-02T21:02:30.520Z,-6.06
2018-03-02T21:04:58.046Z,-6.15
2018-03-02T21:07:26.168Z,-6.05
2018-03-02T21:09:54.591Z,-6.11
2018-03-02T21:12:22.219Z,-6.07
2018-03-02T21:14:49.753Z,-6.11
2018-03-02T21:17:17.278Z,-6.06
2018-03-02T21:19:44.815Z,-6.02
2018-03-02T21:22:12.341Z,-6.26
2018-03-02T21:24:39.883Z,-6.22
2018-03-02T21:27:07.404Z,-6.24
2018-03-02T21:29:34.936Z,-6.39
2018-03-02T21:32:02.455Z,-6.31
2018-03-02T21:34:29.986Z,-6.39
2018-03-02T21:36:57.883Z,-6.35
2018-03-02T21:39:25.404Z,-6.50
2018-03-02T21:41:53.127Z,-6.56
2018-03-02T21:44:20.658Z,-6.44
2018-03-02T21:46:48.176Z,-6.47
2018-03-02T21:49:15.700Z,-6.43
2018-03-02T21:51:43.234Z,-6.59
2018-03-02T21:54:11.593Z,-6.61
2018-03-02T21:56:39.177Z,-6.61
2018-03-02T21:59:06.711Z,-6.45
2018-03-02T22:01:34.236Z,-6.55
2018-03-02T22:04:02.229Z,-6.69
2018-03-02T22:06:29.809Z,-6.66
2018-03-02T22:08:57.333Z,-6.54
2018-03-02T22:11:25.625Z,-6.65
2018-03-02T22:13:53.158Z,-6.70
2018-03-02T22:16:20.677Z,-6.76
2018-03-02T22:18:49.200Z,-6.77
2018-03-02T22:21:17.070Z,-6.82
2018-03-02T22:23:44.686Z,-6.80
2018-03-02T22:26:12.210Z,-6.82
2018-03-02T22:28:39.758Z,-6.76
2018-03-02T22:31:07.281Z,-6.68
2018-03-02T22:33:34.801Z,-6.83
2018-03-02T22:36:02.333Z,-6.88
2018-03-02T22:38:29.881Z,-6.81
2018-03-02T22:40:57.405Z,-6.86
2018-03-02T22:43:25.660Z,-6.96
2018-03-02T22:45:53.207Z,-6.84
2018-03-02T22:48:20.729Z,-6.84
2018-03-02T22:50:48.271Z,-6.71
2018-03-02T22:53:16.255Z,-6.91
2018-03-02T22:55:43.798Z,-6.88
2018-03-02T22:58:11.320Z,-6.96
2018-03-02T23:00:38.857Z,-6.81
2018-03-02T23:03:06.368Z,-7.01
2018-03-02T23:05:33.896Z,-6.93
2018-03-02T23:08:01.429Z,-7.03
2018-03-02T23:10:28.993Z,-7.29
2018-03-02T23:12:56.537Z,-7.15
2018-03-02T23:15:24.081Z,-7.22
2018-03-02T23:17:52.609Z,-7.24
2018-03-02T23:20:20.150Z,-7.25
2018-03-02T23:22:47.678Z,-7.39
2018-03-02T23:25:15.201Z,-7.31
2018-03-02T23:27:42.717Z,-7.41
2018-03-02T23:30:10.244Z,-7.23
2018-03-02T23:32:37.765Z,-7.31
2018-03-02T23:35:05.503Z,-7.48
2018-03-02T23:37:33.027Z,-7.27
2018-03-02T23:40:00.545Z,-7.48
2018-03-02T23:42:28.664Z,-7.41
2018-03-02T23:44:56.215Z,-7.33
2018-03-02T23:47:23.750Z,-7.44
2018-03-02T23:49:51.277Z,-7.31
2018-03-02T23:52:18.878Z,-7.50
2018-03-02T23:54:46.429Z,-7.64
2018-03-02T23:57:13.955Z,-7.41
2018-03-02T23:59:41.549Z,-7.57
